Time;durP1;ratioP1;P1;durP2;ratioP2;P2;SDS_P1;SDS_P2;PMS_P1;PMS_P2;Temp;Humidity;BMP_temperature;BMP_pressure;BME280_temperature;BME280_humidity;BME280_pressure;Samples;Min_cycle;Max_cycle;Signal;HPM_P1;HPM_P2
2021/01/20 00:00:10;;;;;;;8.13;3.55;;;9.30;99.90;;;;;;4995654;28;20295;-81
2021/01/20 00:02:37;;;;;;;5.30;2.85;;;9.50;99.90;;;;;;4995840;28;20207;-81
2021/01/20 00:05:04;;;;;;;4.95;3.13;;;9.50;99.90;;;;;;4995694;28;20204;-81
2021/01/20 00:07:30;;;;;;;7.57;3.60;;;9.60;99.90;;;;;;4995549;28;20197;-81
2021/01/20 00:09:56;;;;;;;6.03;3.05;;;9.70;99.90;;;;;;4995631;28;20224;-81
2021/01/20 00:12:23;;;;;;;4.15;3.00;;;9.60;99.90;;;;;;4995471;28;20193;-81
2021/01/20 00:14:49;;;;;;;4.43;3.08;;;9.60;99.90;;;;;;4995316;28;20208;-81
2021/01/20 00:17:16;;;;;;;3.95;2.83;;;9.80;99.90;;;;;;4995708;28;20197;-81
2021/01/20 00:19:43;;;;;;;6.10;3.92;;;9.90;99.90;;;;;;4995433;28;20209;-81
2021/01/20 00:22:11;;;;;;;5.90;3.50;;;9.80;99.90;;;;;;4995486;28;20216;-81
2021/01/20 00:24:37;;;;;;;5.50;3.10;;;9.80;99.90;;;;;;4995301;28;20197;-81
2021/01/20 00:27:04;;;;;;;6.35;3.63;;;9.90;99.90;;;;;;4995303;28;20208;-81
2021/01/20 00:29:30;;;;;;;6.80;3.13;;;9.70;99.90;;;;;;4995319;28;20203;-81
2021/01/20 00:31:56;;;;;;;9.02;3.55;;;9.80;99.90;;;;;;4995214;28;20199;-81
2021/01/20 00:34:23;;;;;;;6.10;3.95;;;9.90;99.90;;;;;;4995127;28;20205;-81
2021/01/20 00:36:50;;;;;;;4.18;3.78;;;9.80;99.90;;;;;;4995292;28;20556;-81
2021/01/20 00:39:17;;;;;;;8.68;3.20;;;9.80;99.90;;;;;;4995175;28;20197;-81
2021/01/20 00:41:44;;;;;;;3.88;2.80;;;9.80;99.90;;;;;;4995342;28;20256;-81
2021/01/20 00:44:10;;;;;;;7.22;2.63;;;9.80;99.90;;;;;;4994714;28;20254;-81
2021/01/20 00:46:36;;;;;;;5.65;3.13;;;9.80;99.90;;;;;;4994778;28;20239;-81
2021/01/20 00:49:03;;;;;;;8.52;4.03;;;9.90;99.90;;;;;;4995032;28;20197;-81
2021/01/20 00:51:30;;;;;;;3.90;2.60;;;10.00;99.90;;;;;;4994655;28;20692;-81
2021/01/20 00:53:56;;;;;;;3.63;2.83;;;10.10;99.90;;;;;;4994735;28;20201;-81
2021/01/20 00:56:22;;;;;;;5.85;3.00;;;10.00;99.90;;;;;;4994738;28;20197;-81
2021/01/20 00:58:49;;;;;;;4.93;2.83;;;10.10;99.90;;;;;;4994841;28;20205;-81
2021/01/20 01:01:15;;;;;;;4.05;2.92;;;10.00;99.90;;;;;;4994756;28;20563;-81
2021/01/20 01:03:41;;;;;;;2.63;2.42;;;10.00;99.90;;;;;;4994471;28;20197;-81
2021/01/20 01:06:08;;;;;;;4.22;2.50;;;10.00;99.90;;;;;;4994510;28;20197;-81
2021/01/20 01:08:35;;;;;;;4.55;2.92;;;9.90;99.90;;;;;;4994503;28;20196;-81
2021/01/20 01:11:02;;;;;;;3.95;2.53;;;9.80;99.90;;;;;;4994520;28;20221;-81
2021/01/20 01:13:30;;;;;;;5.57;2.40;;;9.70;99.90;;;;;;4994563;28;20564;-81
2021/01/20 01:15:57;;;;;;;7.90;3.35;;;9.60;99.90;;;;;;4994074;28;20586;-81
2021/01/20 01:18:23;;;;;;;7.93;3.20;;;9.60;99.90;;;;;;4994126;28;20219;-81
2021/01/20 01:20:49;;;;;;;5.35;2.67;;;9.50;99.90;;;;;;4994267;28;20197;-81
2021/01/20 01:23:16;;;;;;;3.40;2.97;;;9.50;99.90;;;;;;4994402;28;20193;-81
2021/01/20 01:25:43;;;;;;;4.45;2.67;;;9.80;99.90;;;;;;4994337;28;20200;-81
2021/01/20 01:28:13;;;;;;;7.70;2.95;;;10.00;99.90;;;;;;4994343;28;20267;-81
2021/01/20 01:30:40;;;;;;;8.57;3.15;;;10.00;99.90;;;;;;4994074;28;20228;-81
2021/01/20 01:33:07;;;;;;;2.60;2.30;;;9.90;99.90;;;;;;4994112;28;20287;-80
2021/01/20 01:35:33;;;;;;;8.20;2.85;;;9.90;99.90;;;;;;4994067;28;20200;-81
2021/01/20 01:38:00;;;;;;;4.28;2.35;;;10.00;99.90;;;;;;4994231;28;20607;-81
2021/01/20 01:40:26;;;;;;;4.43;2.45;;;10.10;99.90;;;;;;4994068;28;20209;-81
2021/01/20 01:42:53;;;;;;;6.47;3.20;;;10.20;99.90;;;;;;4993811;28;20200;-81
2021/01/20 01:45:20;;;;;;;5.57;3.33;;;10.10;99.90;;;;;;4993451;28;20229;-81
2021/01/20 01:47:46;;;;;;;6.60;3.20;;;10.00;99.90;;;;;;4993364;28;20196;-81
2021/01/20 01:50:13;;;;;;;3.15;2.85;;;10.10;99.90;;;;;;4993712;28;20225;-81
2021/01/20 01:52:41;;;;;;;6.68;3.50;;;10.00;99.90;;;;;;4993942;28;20201;-81
2021/01/20 01:55:08;;;;;;;4.95;2.72;;;9.90;99.90;;;;;;4993871;28;20208;-81
2021/01/20 01:57:37;;;;;;;5.63;2.85;;;9.80;99.90;;;;;;4993914;28;20197;-81
2021/01/20 02:00:06;;;;;;;3.15;2.85;;;9.90;99.90;;;;;;4993981;28;20204;-80
2021/01/20 02:02:33;;;;;;;4.07;3.45;;;9.80;99.90;;;;;;4996766;28;20250;-81
2021/01/20 02:04:59;;;;;;;7.22;3.42;;;9.90;99.90;;;;;;5000295;28;20193;-81
2021/01/20 02:07:27;;;;;;;3.55;3.00;;;9.70;99.90;;;;;;5000260;28;20777;-81
2021/01/20 02:09:53;;;;;;;4.85;3.13;;;9.80;99.90;;;;;;5000060;28;20197;-81
2021/01/20 02:12:38;;;;;;;3.47;3.17;;;9.90;99.90;;;;;;5000234;28;20200;-81
2021/01/20 02:15:12;;;;;;;5.47;3.65;;;10.00;99.90;;;;;;5000042;28;20231;-81
2021/01/20 02:17:44;;;;;;;4.95;3.10;;;9.90;99.90;;;;;;5000057;28;20216;-81
2021/01/20 02:20:23;;;;;;;5.65;3.25;;;10.00;99.90;;;;;;5000141;28;20205;-81
2021/01/20 02:22:53;;;;;;;5.07;3.05;;;9.90;99.90;;;;;;5000129;28;20652;-81
2021/01/20 02:25:36;;;;;;;5.90;3.42;;;9.90;99.90;;;;;;5000054;28;20193;-81
2021/01/20 02:28:09;;;;;;;2.78;2.50;;;9.90;99.90;;;;;;5000223;28;20271;-81
2021/01/20 02:30:39;;;;;;;3.03;2.72;;;9.70;99.90;;;;;;5000030;28;20631;-81
2021/01/20 02:33:06;;;;;;;4.93;3.28;;;9.90;99.90;;;;;;5000102;28;20283;-81
2021/01/20 02:35:33;;;;;;;4.70;3.17;;;9.90;99.90;;;;;;4999821;28;20201;-81
2021/01/20 02:38:01;;;;;;;6.57;3.28;;;9.70;99.90;;;;;;5000003;28;20255;-81
2021/01/20 02:40:28;;;;;;;7.90;3.78;;;9.70;99.90;;;;;;4999960;28;20200;-81
2021/01/20 02:42:54;;;;;;;3.33;2.55;;;9.60;99.90;;;;;;4999918;28;20201;-81
2021/01/20 02:45:20;;;;;;;4.18;3.10;;;9.70;99.90;;;;;;4999614;28;20225;-81
2021/01/20 02:47:49;;;;;;;3.17;2.88;;;9.90;99.90;;;;;;5000062;28;20201;-80
2021/01/20 02:50:17;;;;;;;3.70;3.40;;;10.10;99.90;;;;;;4999898;28;20225;-81
2021/01/20 02:52:49;;;;;;;6.20;3.00;;;10.10;99.90;;;;;;4999873;28;20212;-81
2021/01/20 02:55:18;;;;;;;2.67;2.47;;;10.00;99.90;;;;;;4999817;28;20256;-81
2021/01/20 02:57:46;;;;;;;6.35;2.80;;;10.00;99.90;;;;;;4999829;28;20197;-81
2021/01/20 03:00:14;;;;;;;5.68;3.45;;;10.20;99.90;;;;;;4999912;28;20216;-81
2021/01/20 03:02:42;;;;;;;3.28;2.53;;;10.10;99.90;;;;;;4999986;28;20197;-81
2021/01/20 03:05:10;;;;;;;5.18;3.03;;;10.00;99.90;;;;;;4999842;28;20267;-81
2021/01/20 03:07:39;;;;;;;4.65;2.63;;;9.90;99.90;;;;;;4999703;28;20200;-80
2021/01/20 03:10:08;;;;;;;3.70;2.30;;;10.20;99.90;;;;;;4999751;28;20688;-81
2021/01/20 03:12:34;;;;;;;4.47;2.83;;;10.30;99.90;;;;;;4999803;28;20200;-80
2021/01/20 03:15:02;;;;;;;8.70;2.72;;;10.40;99.90;;;;;;4996768;28;20217;-80
2021/01/20 03:17:31;;;;;;;3.42;2.85;;;10.30;99.90;;;;;;4996516;28;20207;-80
2021/01/20 03:19:58;;;;;;;3.47;2.10;;;10.50;99.90;;;;;;4996676;28;20242;-81
2021/01/20 03:22:25;;;;;;;2.20;2.00;;;10.70;99.90;;;;;;4996634;28;20676;-80
2021/01/20 03:24:51;;;;;;;3.53;3.28;;;10.50;99.90;;;;;;4996393;28;20207;-81
2021/01/20 03:27:17;;;;;;;4.15;2.63;;;10.50;99.90;;;;;;4996336;28;20204;-81
2021/01/20 03:29:44;;;;;;;3.40;2.75;;;10.40;99.90;;;;;;4996374;28;20274;-81
2021/01/20 03:32:10;;;;;;;5.07;2.63;;;10.30;99.90;;;;;;4996234;28;20225;-81
2021/01/20 03:34:36;;;;;;;5.15;3.33;;;10.30;99.90;;;;;;4996151;28;20228;-81
2021/01/20 03:37:04;;;;;;;3.45;2.13;;;10.20;99.90;;;;;;4996398;28;20205;-81
2021/01/20 03:39:31;;;;;;;3.53;3.15;;;10.20;99.90;;;;;;4996297;28;20201;-81
2021/01/20 03:41:57;;;;;;;3.38;2.40;;;10.10;99.90;;;;;;4995872;28;20199;-81
2021/01/20 03:44:24;;;;;;;4.32;2.88;;;10.30;99.90;;;;;;4995664;28;20197;-81
2021/01/20 03:46:51;;;;;;;3.33;2.75;;;10.10;99.90;;;;;;4995886;28;20232;-81
2021/01/20 03:49:17;;;;;;;3.15;2.60;;;10.20;99.90;;;;;;4996420;28;20228;-81
2021/01/20 03:51:45;;;;;;;3.47;3.17;;;10.30;99.90;;;;;;4995945;28;20224;-80
2021/01/20 03:54:12;;;;;;;4.63;2.67;;;10.20;99.90;;;;;;4995860;28;20208;-81
2021/01/20 03:56:39;;;;;;;2.92;2.60;;;10.30;99.90;;;;;;4996026;28;20216;-81
2021/01/20 03:59:05;;;;;;;3.10;2.55;;;10.40;99.90;;;;;;4995943;28;20204;-80
2021/01/20 04:01:31;;;;;;;3.92;2.65;;;10.20;99.90;;;;;;4995812;28;20620;-81
2021/01/20 04:03:58;;;;;;;5.38;2.50;;;10.30;99.90;;;;;;4995572;28;20201;-81
2021/01/20 04:06:24;;;;;;;4.05;2.45;;;10.20;99.90;;;;;;4995758;28;20255;-81
2021/01/20 04:08:51;;;;;;;3.40;2.70;;;10.50;99.90;;;;;;4995298;28;20244;-81
2021/01/20 04:11:17;;;;;;;2.63;2.25;;;10.40;99.90;;;;;;4995573;28;20229;-81
2021/01/20 04:13:44;;;;;;;2.72;2.53;;;10.50;99.90;;;;;;4995488;28;20204;-80
2021/01/20 04:16:11;;;;;;;2.53;2.30;;;10.50;99.90;;;;;;4995471;28;20220;-81
2021/01/20 04:18:37;;;;;;;5.35;3.25;;;10.60;99.90;;;;;;4995573;28;20555;-81
2021/01/20 04:21:04;;;;;;;4.07;2.80;;;10.60;99.90;;;;;;4995512;28;20522;-81
2021/01/20 04:23:30;;;;;;;3.30;2.63;;;10.40;99.90;;;;;;4995362;28;20220;-80
2021/01/20 04:25:56;;;;;;;3.47;2.58;;;10.50;99.90;;;;;;4994831;28;20247;-80
2021/01/20 04:28:22;;;;;;;3.85;2.70;;;10.70;99.90;;;;;;4995356;28;20707;-81
2021/01/20 04:30:50;;;;;;;2.60;2.25;;;10.70;99.90;;;;;;4994937;28;20237;-80
2021/01/20 04:33:16;;;;;;;6.78;2.65;;;10.60;99.90;;;;;;4995179;28;20200;-81
2021/01/20 04:35:42;;;;;;;3.72;2.50;;;10.60;99.90;;;;;;4995109;28;20205;-80
2021/01/20 04:38:08;;;;;;;4.25;2.72;;;10.70;99.90;;;;;;4995241;28;20204;-81
2021/01/20 04:40:34;;;;;;;2.28;2.08;;;10.80;99.90;;;;;;4994847;28;20196;-81
2021/01/20 04:43:01;;;;;;;2.70;2.25;;;10.90;99.90;;;;;;4994939;28;20200;-80
2021/01/20 04:45:27;;;;;;;2.60;2.40;;;10.80;99.90;;;;;;4994390;28;20225;-80
2021/01/20 04:47:56;;;;;;;3.15;2.22;;;10.70;99.90;;;;;;4994648;28;20201;-81
2021/01/20 04:50:24;;;;;;;4.07;2.60;;;10.90;99.90;;;;;;4994872;28;20221;-81
2021/01/20 04:52:51;;;;;;;3.72;2.83;;;11.00;99.90;;;;;;4994899;28;20193;-81
2021/01/20 04:55:19;;;;;;;6.35;2.78;;;10.90;99.90;;;;;;4994754;28;20660;-80
2021/01/20 04:57:46;;;;;;;2.63;2.42;;;11.00;99.90;;;;;;4994827;28;20197;-81
2021/01/20 05:00:12;;;;;;;2.47;2.05;;;11.00;99.90;;;;;;4994851;28;20256;-80
2021/01/20 05:02:40;;;;;;;2.53;2.33;;;10.80;99.90;;;;;;4994800;28;20267;-80
2021/01/20 05:05:11;;;;;;;2.72;2.30;;;10.80;99.90;;;;;;4994427;28;20201;-80
2021/01/20 05:07:37;;;;;;;4.35;2.65;;;10.70;99.90;;;;;;4993709;28;20281;-81
2021/01/20 05:10:05;;;;;;;2.47;2.28;;;10.70;99.90;;;;;;4994467;28;20208;-80
2021/01/20 05:12:38;;;;;;;2.58;2.33;;;10.60;99.90;;;;;;4994500;28;20220;-81
2021/01/20 05:15:07;;;;;;;4.50;2.90;;;10.60;99.90;;;;;;4994191;28;20723;-80
2021/01/20 05:17:33;;;;;;;3.25;2.25;;;10.60;99.90;;;;;;4994327;28;20539;-81
2021/01/20 05:20:00;;;;;;;3.42;3.13;;;10.60;99.90;;;;;;4994429;28;20208;-80
2021/01/20 05:22:27;;;;;;;3.50;2.33;;;10.60;99.90;;;;;;4994359;28;20255;-80
2021/01/20 05:25:01;;;;;;;2.45;2.22;;;10.80;99.90;;;;;;4994236;28;20201;-80
2021/01/20 05:27:28;;;;;;;2.60;2.20;;;10.90;99.90;;;;;;4994134;28;20255;-80
2021/01/20 05:30:03;;;;;;;3.78;2.60;;;10.90;99.90;;;;;;4994166;28;20203;-81
2021/01/20 05:32:30;;;;;;;2.60;2.40;;;10.90;99.90;;;;;;4994041;28;20219;-78
2021/01/20 05:35:02;;;;;;;4.25;2.53;;;11.10;99.90;;;;;;4993909;28;20207;-78
2021/01/20 05:37:29;;;;;;;3.05;2.60;;;11.10;99.90;;;;;;4993348;28;20193;-79
2021/01/20 05:40:10;;;;;;;2.47;2.28;;;11.10;99.90;;;;;;4994205;28;20201;-79
2021/01/20 05:42:44;;;;;;;3.13;2.40;;;11.20;99.90;;;;;;4993690;28;20197;-78
2021/01/20 05:45:13;;;;;;;3.50;2.42;;;11.20;99.90;;;;;;4993630;28;20232;-78
2021/01/20 05:47:59;;;;;;;2.47;1.80;;;11.00;99.90;;;;;;4993778;28;20235;-78
2021/01/20 05:50:26;;;;;;;2.85;2.55;;;11.10;99.90;;;;;;4993820;28;20287;-78
2021/01/20 05:53:04;;;;;;;2.50;2.30;;;11.10;99.90;;;;;;4993654;28;20203;-79
2021/01/20 05:55:30;;;;;;;2.70;2.50;;;11.10;99.90;;;;;;4993724;28;20203;-79
2021/01/20 05:57:58;;;;;;;1.98;1.77;;;10.90;99.90;;;;;;4993741;28;20197;-78
2021/01/20 06:00:24;;;;;;;3.17;2.78;;;11.00;99.90;;;;;;4993545;28;20208;-79
2021/01/20 06:02:54;;;;;;;2.00;1.90;;;11.00;99.90;;;;;;4993470;28;20199;-78
2021/01/20 06:05:21;;;;;;;10.02;2.50;;;11.00;99.90;;;;;;4993533;28;20204;-79
2021/01/20 06:07:49;;;;;;;2.65;2.45;;;11.10;99.90;;;;;;4993525;28;20207;-79
2021/01/20 06:10:17;;;;;;;2.58;2.20;;;11.00;99.90;;;;;;4993603;28;20534;-79
2021/01/20 06:12:43;;;;;;;2.30;2.03;;;10.90;99.90;;;;;;4993727;28;20197;-79
2021/01/20 06:15:10;;;;;;;2.40;2.20;;;11.10;99.90;;;;;;4993468;28;20304;-79
2021/01/20 06:17:40;;;;;;;2.10;1.90;;;11.10;99.90;;;;;;4993694;28;20208;-79
2021/01/20 06:20:09;;;;;;;3.25;2.15;;;11.10;99.90;;;;;;4993632;28;20251;-79
2021/01/20 06:22:41;;;;;;;2.70;2.28;;;11.00;99.90;;;;;;4993641;28;20208;-79
2021/01/20 06:25:13;;;;;;;4.15;2.22;;;11.10;99.90;;;;;;4993539;28;20695;-79
2021/01/20 06:27:45;;;;;;;9.27;2.50;;;11.10;99.90;;;;;;4993511;28;20201;-79
2021/01/20 06:30:17;;;;;;;3.25;2.55;;;11.10;99.90;;;;;;4993498;28;20641;-79
2021/01/20 06:32:46;;;;;;;3.88;2.58;;;11.10;99.90;;;;;;4993546;28;20683;-79
2021/01/20 06:35:12;;;;;;;2.65;1.75;;;11.10;99.90;;;;;;4993436;28;20604;-79
2021/01/20 06:37:41;;;;;;;2.50;2.20;;;11.30;99.90;;;;;;4993627;28;20201;-79
2021/01/20 06:40:43;;;;;;;3.05;2.25;;;11.00;99.90;;;;;;4993492;28;20205;-79
2021/01/20 06:43:32;;;;;;;2.67;2.13;;;11.00;99.90;;;;;;4993446;28;20668;-79
2021/01/20 06:46:26;;;;;;;1.98;1.88;;;11.00;99.90;;;;;;4985104;28;20229;-79
2021/01/20 06:49:09;;;;;;;4.78;2.25;;;11.10;99.90;;;;;;4989617;28;20208;-90
2021/01/20 06:51:37;;;;;;;4.18;2.35;;;11.30;99.90;;;;;;4997289;28;20660;-89
2021/01/20 06:54:09;;;;;;;3.20;2.35;;;11.40;99.90;;;;;;4996966;28;20197;-90
2021/01/20 06:56:37;;;;;;;2.53;2.00;;;11.10;99.90;;;;;;4997378;28;20193;-85
2021/01/20 06:59:21;;;;;;;1.90;1.80;;;11.20;99.90;;;;;;4997309;28;20607;-84
2021/01/20 07:02:10;;;;;;;2.83;2.10;;;11.30;99.90;;;;;;4997301;28;20255;-85
2021/01/20 07:04:55;;;;;;;3.35;2.28;;;11.30;99.90;;;;;;4997197;28;20212;-83
2021/01/20 07:08:01;;;;;;;2.05;1.85;;;11.20;99.90;;;;;;4996892;28;20203;-83
2021/01/20 07:10:29;;;;;;;2.50;1.90;;;11.10;99.90;;;;;;4997049;28;20260;-83
2021/01/20 07:13:19;;;;;;;2.10;1.90;;;11.10;99.90;;;;;;4996892;28;20197;-84
2021/01/20 07:15:57;;;;;;;2.38;2.17;;;11.00;99.90;;;;;;4997038;28;20636;-84
2021/01/20 07:18:24;;;;;;;2.15;1.95;;;11.00;99.90;;;;;;4996950;28;20223;-85
2021/01/20 07:20:51;;;;;;;2.10;1.90;;;11.10;99.90;;;;;;4997012;28;20589;-85
2021/01/20 07:23:18;;;;;;;2.97;2.00;;;11.20;99.90;;;;;;4995319;28;20205;-84
2021/01/20 07:25:50;;;;;;;2.58;1.90;;;11.20;99.90;;;;;;4998232;28;20719;-84
2021/01/20 07:28:17;;;;;;;2.30;1.80;;;11.20;99.90;;;;;;4984247;28;20281;-85
2021/01/20 07:30:43;;;;;;;4.35;2.20;;;11.20;99.90;;;;;;4979227;28;20561;-85
2021/01/20 07:33:22;;;;;;;3.15;1.90;;;11.30;99.90;;;;;;4976900;28;20744;-82
2021/01/20 07:35:49;;;;;;;2.70;2.00;;;11.20;99.90;;;;;;4976919;28;20293;-84
2021/01/20 07:38:16;;;;;;;1.73;1.63;;;11.20;99.90;;;;;;4976929;28;20562;-82
2021/01/20 07:40:45;;;;;;;2.75;1.80;;;11.30;99.90;;;;;;4985647;28;20201;-81
2021/01/20 07:43:21;;;;;;;2.20;1.80;;;11.30;99.90;;;;;;4996205;28;20208;-82
2021/01/20 07:45:47;;;;;;;2.55;1.60;;;11.20;99.90;;;;;;4995832;28;20242;-82
2021/01/20 07:48:14;;;;;;;2.00;1.75;;;11.30;99.90;;;;;;4996047;28;20204;-82
2021/01/20 07:50:46;;;;;;;2.88;2.17;;;11.40;99.90;;;;;;4996038;28;20257;-83
2021/01/20 07:53:17;;;;;;;1.98;1.50;;;11.30;99.90;;;;;;4995984;28;20557;-82
2021/01/20 07:55:44;;;;;;;2.00;1.80;;;11.40;99.90;;;;;;4995973;28;20263;-82
2021/01/20 07:58:11;;;;;;;2.55;1.75;;;11.60;99.90;;;;;;4995558;28;20197;-82
2021/01/20 08:00:42;;;;;;;2.65;2.08;;;11.60;99.90;;;;;;4979506;28;20707;-82
2021/01/20 08:03:08;;;;;;;1.45;1.35;;;11.70;99.90;;;;;;4976553;28;20212;-83
2021/01/20 08:05:35;;;;;;;2.10;1.65;;;11.50;99.90;;;;;;4976408;28;20205;-85
2021/01/20 08:08:14;;;;;;;4.07;1.60;;;11.50;99.90;;;;;;4976448;28;20661;-85
2021/01/20 08:10:42;;;;;;;2.05;1.85;;;11.50;99.90;;;;;;4976255;28;20232;-82
2021/01/20 08:13:12;;;;;;;3.60;2.47;;;11.70;99.90;;;;;;4976217;28;20252;-82
2021/01/20 08:15:40;;;;;;;2.25;1.75;;;11.60;99.90;;;;;;4976026;28;20590;-81
2021/01/20 08:18:09;;;;;;;3.08;1.70;;;11.60;99.90;;;;;;4975834;28;20209;-87
2021/01/20 08:20:36;;;;;;;2.45;2.08;;;11.50;99.90;;;;;;4976100;28;20232;-80
2021/01/20 08:23:05;;;;;;;2.40;1.80;;;11.70;99.90;;;;;;4975846;28;20197;-80
2021/01/20 08:25:32;;;;;;;2.90;1.95;;;11.80;99.90;;;;;;4974703;28;20209;-80
2021/01/20 08:28:13;;;;;;;6.10;2.25;;;11.70;99.90;;;;;;4975336;28;20273;-79
2021/01/20 08:30:39;;;;;;;1.70;1.60;;;11.80;99.90;;;;;;4991156;28;20270;-80
2021/01/20 08:33:06;;;;;;;2.55;1.73;;;11.80;99.90;;;;;;4995093;28;20653;-80
2021/01/20 08:35:34;;;;;;;2.30;2.10;;;11.60;99.90;;;;;;4978079;28;20198;-80
2021/01/20 08:38:01;;;;;;;2.83;2.30;;;11.60;99.90;;;;;;4975413;28;20198;-79
2021/01/20 08:40:29;;;;;;;2.88;1.90;;;11.50;99.90;;;;;;4975574;28;20697;-79
2021/01/20 08:42:55;;;;;;;3.00;1.90;;;11.60;99.90;;;;;;4975310;28;20193;-79
2021/01/20 08:45:33;;;;;;;2.00;1.58;;;11.60;99.90;;;;;;4975118;28;20276;-79
2021/01/20 08:48:02;;;;;;;2.25;1.77;;;11.70;99.90;;;;;;4975517;28;20676;-81
2021/01/20 08:50:51;;;;;;;2.78;2.08;;;11.50;99.90;;;;;;4975537;28;20202;-81
2021/01/20 08:53:26;;;;;;;2.35;1.95;;;11.40;99.90;;;;;;4987464;28;20211;-81
2021/01/20 08:55:55;;;;;;;2.92;2.42;;;11.30;99.90;;;;;;4987515;28;20284;-80
2021/01/20 08:58:26;;;;;;;2.20;1.80;;;11.40;99.90;;;;;;4993501;28;20205;-80
2021/01/20 09:00:55;;;;;;;2.70;2.28;;;11.50;99.90;;;;;;4983640;28;20299;-80
2021/01/20 09:03:22;;;;;;;2.72;1.80;;;11.50;99.90;;;;;;4977766;28;20208;-80
2021/01/20 09:05:50;;;;;;;1.95;1.83;;;11.40;99.90;;;;;;4994552;28;20201;-81
2021/01/20 09:08:16;;;;;;;1.95;1.80;;;11.30;99.90;;;;;;4994236;28;20200;-80
2021/01/20 09:10:43;;;;;;;1.90;1.70;;;11.40;99.90;;;;;;4994465;28;20221;-80
2021/01/20 09:13:11;;;;;;;1.70;1.60;;;11.30;99.90;;;;;;4994378;28;20200;-81
2021/01/20 09:15:38;;;;;;;1.80;1.67;;;11.30;99.90;;;;;;4994194;28;20275;-81
2021/01/20 09:18:06;;;;;;;2.35;1.75;;;11.40;99.90;;;;;;4994076;28;20193;-80
2021/01/20 09:20:33;;;;;;;2.13;1.70;;;11.50;99.90;;;;;;4994322;28;20544;-81
2021/01/20 09:22:59;;;;;;;2.17;1.80;;;11.60;99.90;;;;;;4994033;28;20220;-80
2021/01/20 09:25:25;;;;;;;3.72;1.73;;;11.60;99.90;;;;;;4994083;28;20566;-80
2021/01/20 09:27:52;;;;;;;2.60;2.40;;;11.50;99.90;;;;;;4976573;28;20193;-80
2021/01/20 09:30:19;;;;;;;1.95;1.77;;;11.50;99.90;;;;;;4985724;28;20571;-80
2021/01/20 09:32:46;;;;;;;2.17;1.98;;;11.50;99.90;;;;;;4986734;28;20200;-81
2021/01/20 09:35:14;;;;;;;3.75;1.95;;;11.60;99.90;;;;;;4974768;28;20202;-80
2021/01/20 09:37:41;;;;;;;3.00;2.10;;;11.70;99.90;;;;;;4974668;28;20197;-83
2021/01/20 09:40:09;;;;;;;2.00;1.67;;;11.70;99.90;;;;;;4975046;28;20194;-84
2021/01/20 09:42:36;;;;;;;3.83;2.13;;;11.50;99.90;;;;;;4974692;28;20208;-80
2021/01/20 09:45:04;;;;;;;1.80;1.70;;;11.60;99.90;;;;;;4974093;28;20225;-82
2021/01/20 09:47:31;;;;;;;2.47;2.15;;;11.70;99.90;;;;;;4974672;28;20202;-79
2021/01/20 09:49:58;;;;;;;4.00;2.20;;;11.70;99.90;;;;;;4974298;28;20202;-80
2021/01/20 09:52:25;;;;;;;3.05;1.80;;;11.60;99.90;;;;;;4974351;28;20230;-79
2021/01/20 09:54:53;;;;;;;2.65;1.95;;;11.60;99.90;;;;;;4979120;28;20207;-78
2021/01/20 09:57:20;;;;;;;2.03;1.80;;;11.60;99.90;;;;;;4974423;28;20197;-82
2021/01/20 09:59:46;;;;;;;1.90;1.77;;;11.60;99.90;;;;;;4982324;28;20592;-81
2021/01/20 10:02:12;;;;;;;2.20;1.85;;;11.60;99.90;;;;;;4974151;28;20202;-82
2021/01/20 10:04:41;;;;;;;2.83;1.95;;;11.70;99.90;;;;;;4974392;28;20544;-79
2021/01/20 10:07:07;;;;;;;4.03;2.10;;;11.70;99.90;;;;;;4974188;28;20673;-79
2021/01/20 10:09:33;;;;;;;3.45;2.83;;;11.70;99.90;;;;;;4974056;28;20562;-80
2021/01/20 10:12:00;;;;;;;3.45;2.30;;;11.80;99.90;;;;;;4974252;28;20711;-80
2021/01/20 10:14:26;;;;;;;2.40;1.90;;;11.80;99.90;;;;;;4972496;28;20240;-79
2021/01/20 10:16:52;;;;;;;2.45;2.25;;;11.90;99.90;;;;;;4973494;28;20205;-80
2021/01/20 10:19:19;;;;;;;2.60;2.40;;;11.90;99.90;;;;;;4973508;28;20198;-81
2021/01/20 10:21:46;;;;;;;2.45;2.25;;;11.90;99.90;;;;;;4973617;28;20202;-80
2021/01/20 10:24:12;;;;;;;2.95;2.67;;;12.10;99.90;;;;;;4975774;28;20611;-81
2021/01/20 10:26:40;;;;;;;6.60;2.72;;;12.20;99.90;;;;;;4977426;28;20197;-80
2021/01/20 10:29:07;;;;;;;2.10;1.90;;;12.00;99.90;;;;;;4977456;28;20228;-80
2021/01/20 10:31:34;;;;;;;2.53;2.20;;;12.00;99.90;;;;;;4977104;28;20229;-80
2021/01/20 10:34:01;;;;;;;2.30;2.10;;;11.90;99.90;;;;;;4976971;28;20189;-80
2021/01/20 10:36:27;;;;;;;2.75;2.55;;;11.50;99.90;;;;;;4977314;28;20223;-80
2021/01/20 10:38:55;;;;;;;4.32;2.10;;;11.60;99.90;;;;;;4977099;28;20197;-81
2021/01/20 10:41:22;;;;;;;2.10;1.90;;;11.60;99.90;;;;;;4981939;28;20200;-82
2021/01/20 10:43:50;;;;;;;3.05;2.40;;;11.80;99.90;;;;;;4983425;28;20201;-81
2021/01/20 10:46:17;;;;;;;2.50;2.20;;;11.80;99.90;;;;;;4976906;28;20221;-81
2021/01/20 10:48:44;;;;;;;3.70;2.08;;;11.80;99.90;;;;;;4977184;28;20194;-81
2021/01/20 10:51:11;;;;;;;3.42;2.38;;;11.80;99.90;;;;;;4976908;28;20229;-81
2021/01/20 10:53:38;;;;;;;3.25;2.70;;;11.90;99.90;;;;;;4976854;28;20204;-84
2021/01/20 10:56:06;;;;;;;2.85;1.77;;;12.10;99.90;;;;;;4976975;28;20248;-79
2021/01/20 10:58:33;;;;;;;2.00;1.90;;;12.00;99.90;;;;;;4976715;28;20208;-80
2021/01/20 11:01:00;;;;;;;2.30;2.10;;;11.90;99.90;;;;;;4976998;28;20661;-80
2021/01/20 11:03:27;;;;;;;2.25;2.00;;;12.00;99.90;;;;;;4976497;28;20603;-80
2021/01/20 11:05:53;;;;;;;2.00;1.65;;;12.20;99.90;;;;;;4976719;28;20194;-80
2021/01/20 11:08:20;;;;;;;4.30;2.67;;;12.20;99.90;;;;;;4975809;28;20821;-79
2021/01/20 11:10:46;;;;;;;4.55;2.45;;;12.10;99.90;;;;;;4976350;28;20550;-80
2021/01/20 11:13:14;;;;;;;3.95;2.30;;;12.10;99.90;;;;;;4976612;28;20198;-79
2021/01/20 11:15:45;;;;;;;286.10;43.00;;;12.20;99.90;;;;;;4976042;28;20513;-81
2021/01/20 15:58:45;;;;;;;1.87;1.33;;;19.80;97.40;;;;;;5111344;27;20541;-64
2021/01/20 16:01:11;;;;;;;15.43;2.80;;;20.20;97.60;;;;;;5111088;28;20453;-63
2021/01/20 16:03:38;;;;;;;10.20;2.27;;;21.00;96.60;;;;;;5111115;28;20438;-67
2021/01/20 16:06:04;;;;;;;7.03;1.90;;;21.70;95.70;;;;;;5111007;28;20534;-66
2021/01/20 16:08:30;;;;;;;7.30;2.30;;;22.10;94.70;;;;;;5110905;28;20431;-64
2021/01/20 16:10:57;;;;;;;9.80;2.07;;;22.50;94.00;;;;;;5110880;28;20427;-64
2021/01/20 16:13:23;;;;;;;5.57;2.63;;;22.70;93.50;;;;;;5110767;28;20439;-64
2021/01/20 16:15:50;;;;;;;9.40;1.83;;;22.90;93.00;;;;;;5110822;28;20462;-64
2021/01/20 16:18:16;;;;;;;4.30;2.00;;;23.00;92.60;;;;;;5110676;28;21199;-64
2021/01/20 16:20:42;;;;;;;9.63;2.30;;;23.10;92.20;;;;;;5110694;28;20443;-64
2021/01/20 16:23:09;;;;;;;9.93;1.90;;;23.20;91.80;;;;;;5110756;28;20435;-63
2021/01/20 16:25:35;;;;;;;6.90;1.67;;;23.30;91.30;;;;;;5110682;28;20435;-63
2021/01/20 16:28:01;;;;;;;3.00;2.13;;;23.30;90.90;;;;;;5110536;28;20435;-64
2021/01/20 16:30:29;;;;;;;4.90;1.80;;;23.30;90.60;;;;;;5110439;28;20438;-65
2021/01/20 16:32:57;;;;;;;3.60;1.50;;;23.40;90.30;;;;;;5110410;28;20507;-65
2021/01/20 16:35:23;;;;;;;7.43;2.00;;;23.50;90.20;;;;;;5110537;28;20514;-64
2021/01/20 16:37:50;;;;;;;4.00;2.00;;;23.50;89.90;;;;;;5110320;28;21107;-64
2021/01/20 16:40:17;;;;;;;5.27;2.60;;;23.50;89.50;;;;;;5110275;28;20434;-63
2021/01/20 16:42:43;;;;;;;1.90;1.40;;;23.50;88.70;;;;;;5110018;28;20853;-63
2021/01/20 16:45:11;;;;;;;3.87;1.67;;;23.60;88.70;;;;;;5107531;28;20456;-64
2021/01/20 16:47:37;;;;;;;2.77;1.70;;;23.60;88.30;;;;;;5098573;28;20443;-71
2021/01/20 16:50:07;;;;;;;13.13;1.70;;;23.60;87.80;;;;;;5110261;28;20435;-65
2021/01/20 16:52:33;;;;;;;1.97;1.40;;;23.60;87.80;;;;;;5109973;28;20447;-66
2021/01/20 16:55:00;;;;;;;1.60;1.30;;;23.60;87.50;;;;;;5109818;28;20447;-71
2021/01/20 16:57:26;;;;;;;2.17;1.33;;;23.60;86.90;;;;;;5109741;28;20485;-66
2021/01/20 16:59:53;;;;;;;2.43;1.37;;;23.70;86.30;;;;;;5105934;28;20436;-67
2021/01/20 17:02:19;;;;;;;2.70;1.47;;;23.70;85.90;;;;;;5094053;28;20431;-65
2021/01/20 17:04:46;;;;;;;4.30;1.90;;;23.70;85.30;;;;;;5105363;28;20439;-65
2021/01/20 17:07:13;;;;;;;8.03;1.70;;;23.70;85.40;;;;;;5109704;28;20537;-66
2021/01/20 17:09:39;;;;;;;2.30;1.50;;;23.70;85.70;;;;;;5089235;28;20448;-65
2021/01/20 17:12:06;;;;;;;4.07;2.10;;;23.70;86.20;;;;;;5095928;28;20450;-66
2021/01/20 17:14:32;;;;;;;3.93;1.67;;;23.70;86.50;;;;;;5090729;28;20460;-67
2021/01/20 17:16:59;;;;;;;4.57;1.40;;;23.70;86.50;;;;;;5087599;28;20483;-65
2021/01/20 17:19:25;;;;;;;6.03;1.80;;;23.70;85.70;;;;;;5087782;28;20447;-66
2021/01/20 17:21:51;;;;;;;5.03;1.70;;;23.70;85.40;;;;;;5082127;28;20428;-66
2021/01/20 17:24:18;;;;;;;6.10;1.93;;;23.70;85.00;;;;;;5095590;28;20437;-65
2021/01/20 17:26:44;;;;;;;3.60;1.80;;;23.70;86.00;;;;;;5094656;28;20444;-62
2021/01/20 17:29:11;;;;;;;3.37;1.93;;;23.70;85.90;;;;;;5080443;28;20444;-69
2021/01/20 17:31:37;;;;;;;6.30;2.03;;;23.70;86.10;;;;;;5084376;28;20934;-66
2021/01/20 17:34:03;;;;;;;5.07;1.93;;;23.70;86.80;;;;;;5076292;28;20450;-66